sensor_id;sensor_type;location;lat;lon;timestamp;P1;durP1;ratioP1;P2;durP2;ratioP2
21356;SDS011;10836;53.068;18.234;2023-04-24T00:01:22;19.65;;;13.68;;
21356;SDS011;10836;53.068;18.234;2023-04-24T00:03:48;22.10;;;14.67;;
21356;SDS011;10836;53.068;18.234;2023-04-24T00:06:16;23.80;;;14.48;;
21356;SDS011;10836;53.068;18.234;2023-04-24T00:08:43;28.83;;;16.00;;
21356;SDS011;10836;53.068;18.234;2023-04-24T00:11:10;31.83;;;17.02;;
21356;SDS011;10836;53.068;18.234;2023-04-24T00:13:37;31.02;;;17.80;;
21356;SDS011;10836;53.068;18.234;2023-04-24T00:16:04;34.22;;;19.02;;
21356;SDS011;10836;53.068;18.234;2023-04-24T00:18:32;30.73;;;17.60;;
21356;SDS011;10836;53.068;18.234;2023-04-24T00:20:59;33.47;;;18.58;;
21356;SDS011;10836;53.068;18.234;2023-04-24T00:23:26;34.58;;;18.42;;
21356;SDS011;10836;53.068;18.234;2023-04-24T00:25:53;31.23;;;18.80;;
21356;SDS011;10836;53.068;18.234;2023-04-24T00:28:20;27.90;;;17.20;;
21356;SDS011;10836;53.068;18.234;2023-04-24T00:30:47;29.70;;;18.63;;
21356;SDS011;10836;53.068;18.234;2023-04-24T00:33:14;35.33;;;18.73;;
21356;SDS011;10836;53.068;18.234;2023-04-24T00:35:41;29.70;;;18.15;;
21356;SDS011;10836;53.068;18.234;2023-04-24T00:38:10;30.63;;;18.40;;
21356;SDS011;10836;53.068;18.234;2023-04-24T00:40:37;30.63;;;18.00;;
21356;SDS011;10836;53.068;18.234;2023-04-24T00:43:04;36.15;;;20.38;;
21356;SDS011;10836;53.068;18.234;2023-04-24T00:45:31;32.08;;;19.15;;
21356;SDS011;10836;53.068;18.234;2023-04-24T00:47:58;39.30;;;20.77;;
21356;SDS011;10836;53.068;18.234;2023-04-24T00:50:27;33.80;;;18.95;;
21356;SDS011;10836;53.068;18.234;2023-04-24T00:52:55;33.58;;;19.88;;
21356;SDS011;10836;53.068;18.234;2023-04-24T00:55:22;33.05;;;19.27;;
21356;SDS011;10836;53.068;18.234;2023-04-24T00:57:49;33.47;;;19.92;;
21356;SDS011;10836;53.068;18.234;2023-04-24T01:00:16;35.47;;;20.42;;
21356;SDS011;10836;53.068;18.234;2023-04-24T01:02:43;36.80;;;21.08;;
21356;SDS011;10836;53.068;18.234;2023-04-24T01:05:12;32.78;;;19.33;;
21356;SDS011;10836;53.068;18.234;2023-04-24T01:07:43;38.15;;;21.10;;
21356;SDS011;10836;53.068;18.234;2023-04-24T01:10:13;38.60;;;21.92;;
21356;SDS011;10836;53.068;18.234;2023-04-24T01:12:40;43.40;;;23.05;;
21356;SDS011;10836;53.068;18.234;2023-04-24T01:15:08;42.60;;;22.27;;
21356;SDS011;10836;53.068;18.234;2023-04-24T01:17:35;37.90;;;21.42;;
21356;SDS011;10836;53.068;18.234;2023-04-24T01:20:02;39.33;;;21.30;;
21356;SDS011;10836;53.068;18.234;2023-04-24T01:22:33;36.20;;;20.70;;
21356;SDS011;10836;53.068;18.234;2023-04-24T01:25:01;36.38;;;20.38;;
21356;SDS011;10836;53.068;18.234;2023-04-24T01:27:30;46.10;;;20.23;;
21356;SDS011;10836;53.068;18.234;2023-04-24T01:29:57;40.13;;;22.13;;
21356;SDS011;10836;53.068;18.234;2023-04-24T01:32:24;39.10;;;21.17;;
21356;SDS011;10836;53.068;18.234;2023-04-24T01:34:52;40.70;;;21.50;;
21356;SDS011;10836;53.068;18.234;2023-04-24T01:37:19;41.33;;;22.42;;
21356;SDS011;10836;53.068;18.234;2023-04-24T01:39:46;38.08;;;20.75;;
21356;SDS011;10836;53.068;18.234;2023-04-24T01:42:13;40.88;;;21.15;;
21356;SDS011;10836;53.068;18.234;2023-04-24T01:44:41;36.33;;;20.15;;
21356;SDS011;10836;53.068;18.234;2023-04-24T01:47:08;40.08;;;21.70;;
21356;SDS011;10836;53.068;18.234;2023-04-24T01:49:36;34.75;;;20.95;;
21356;SDS011;10836;53.068;18.234;2023-04-24T01:52:04;40.58;;;22.00;;
21356;SDS011;10836;53.068;18.234;2023-04-24T01:54:32;31.13;;;18.92;;
21356;SDS011;10836;53.068;18.234;2023-04-24T01:56:59;34.40;;;20.53;;
21356;SDS011;10836;53.068;18.234;2023-04-24T01:59:27;38.03;;;20.35;;
21356;SDS011;10836;53.068;18.234;2023-04-24T02:01:55;35.78;;;21.10;;
21356;SDS011;10836;53.068;18.234;2023-04-24T02:04:22;34.88;;;19.48;;
21356;SDS011;10836;53.068;18.234;2023-04-24T02:06:49;37.03;;;20.17;;
21356;SDS011;10836;53.068;18.234;2023-04-24T02:09:16;44.17;;;22.83;;
21356;SDS011;10836;53.068;18.234;2023-04-24T02:11:43;38.20;;;21.92;;
21356;SDS011;10836;53.068;18.234;2023-04-24T02:14:10;35.33;;;21.38;;
21356;SDS011;10836;53.068;18.234;2023-04-24T02:16:39;43.60;;;23.63;;
21356;SDS011;10836;53.068;18.234;2023-04-24T02:19:06;41.10;;;22.00;;
21356;SDS011;10836;53.068;18.234;2023-04-24T02:21:33;38.17;;;22.48;;
21356;SDS011;10836;53.068;18.234;2023-04-24T02:24:00;40.33;;;20.92;;
21356;SDS011;10836;53.068;18.234;2023-04-24T02:26:27;39.58;;;21.95;;
21356;SDS011;10836;53.068;18.234;2023-04-24T02:28:54;36.40;;;21.80;;
21356;SDS011;10836;53.068;18.234;2023-04-24T02:31:21;38.47;;;20.70;;
21356;SDS011;10836;53.068;18.234;2023-04-24T02:33:48;39.50;;;23.13;;
21356;SDS011;10836;53.068;18.234;2023-04-24T02:36:15;35.25;;;21.38;;
21356;SDS011;10836;53.068;18.234;2023-04-24T02:38:42;38.77;;;21.77;;
21356;SDS011;10836;53.068;18.234;2023-04-24T02:41:11;34.05;;;21.35;;
21356;SDS011;10836;53.068;18.234;2023-04-24T02:43:38;39.42;;;22.52;;
21356;SDS011;10836;53.068;18.234;2023-04-24T02:46:05;36.30;;;21.55;;
21356;SDS011;10836;53.068;18.234;2023-04-24T02:48:32;41.08;;;22.20;;
21356;SDS011;10836;53.068;18.234;2023-04-24T02:50:59;36.83;;;21.73;;
21356;SDS011;10836;53.068;18.234;2023-04-24T02:53:26;32.17;;;19.90;;
21356;SDS011;10836;53.068;18.234;2023-04-24T02:55:53;33.45;;;21.30;;
21356;SDS011;10836;53.068;18.234;2023-04-24T02:58:20;41.08;;;24.15;;
21356;SDS011;10836;53.068;18.234;2023-04-24T03:00:47;39.40;;;21.58;;
21356;SDS011;10836;53.068;18.234;2023-04-24T03:03:14;37.72;;;21.70;;
21356;SDS011;10836;53.068;18.234;2023-04-24T03:05:42;40.88;;;23.60;;
21356;SDS011;10836;53.068;18.234;2023-04-24T03:08:09;42.73;;;22.30;;
21356;SDS011;10836;53.068;18.234;2023-04-24T03:10:37;40.90;;;22.58;;
21356;SDS011;10836;53.068;18.234;2023-04-24T03:13:04;42.78;;;23.05;;
21356;SDS011;10836;53.068;18.234;2023-04-24T03:15:33;39.85;;;23.15;;
21356;SDS011;10836;53.068;18.234;2023-04-24T03:18:00;45.17;;;23.95;;
21356;SDS011;10836;53.068;18.234;2023-04-24T03:20:28;41.45;;;23.13;;
21356;SDS011;10836;53.068;18.234;2023-04-24T03:22:56;49.03;;;25.17;;
21356;SDS011;10836;53.068;18.234;2023-04-24T03:25:24;41.25;;;22.70;;
21356;SDS011;10836;53.068;18.234;2023-04-24T03:27:51;37.35;;;22.60;;
21356;SDS011;10836;53.068;18.234;2023-04-24T03:30:30;39.70;;;21.92;;
21356;SDS011;10836;53.068;18.234;2023-04-24T03:33:00;42.33;;;23.08;;
21356;SDS011;10836;53.068;18.234;2023-04-24T03:35:31;41.70;;;24.52;;
21356;SDS011;10836;53.068;18.234;2023-04-24T03:38:01;45.08;;;24.90;;
21356;SDS011;10836;53.068;18.234;2023-04-24T03:40:43;43.92;;;25.17;;
21356;SDS011;10836;53.068;18.234;2023-04-24T03:43:27;44.30;;;25.52;;
21356;SDS011;10836;53.068;18.234;2023-04-24T03:45:56;53.75;;;27.48;;
21356;SDS011;10836;53.068;18.234;2023-04-24T03:48:23;48.45;;;27.70;;
21356;SDS011;10836;53.068;18.234;2023-04-24T03:50:51;46.55;;;26.40;;
21356;SDS011;10836;53.068;18.234;2023-04-24T03:53:18;45.72;;;27.73;;
21356;SDS011;10836;53.068;18.234;2023-04-24T03:55:46;43.50;;;26.25;;
21356;SDS011;10836;53.068;18.234;2023-04-24T03:58:14;44.55;;;25.38;;
21356;SDS011;10836;53.068;18.234;2023-04-24T04:00:41;43.40;;;24.90;;
21356;SDS011;10836;53.068;18.234;2023-04-24T04:03:28;44.88;;;24.58;;
21356;SDS011;10836;53.068;18.234;2023-04-24T04:05:55;42.58;;;24.80;;
21356;SDS011;10836;53.068;18.234;2023-04-24T04:08:22;41.08;;;24.30;;
21356;SDS011;10836;53.068;18.234;2023-04-24T04:10:49;41.05;;;23.45;;
21356;SDS011;10836;53.068;18.234;2023-04-24T04:13:16;44.47;;;24.83;;
21356;SDS011;10836;53.068;18.234;2023-04-24T04:15:43;46.38;;;24.40;;
21356;SDS011;10836;53.068;18.234;2023-04-24T04:18:10;43.17;;;26.20;;
21356;SDS011;10836;53.068;18.234;2023-04-24T04:20:38;43.63;;;25.27;;
21356;SDS011;10836;53.068;18.234;2023-04-24T04:23:05;41.30;;;25.77;;
21356;SDS011;10836;53.068;18.234;2023-04-24T04:25:54;40.47;;;24.73;;
21356;SDS011;10836;53.068;18.234;2023-04-24T04:28:27;42.63;;;25.60;;
21356;SDS011;10836;53.068;18.234;2023-04-24T04:30:54;41.75;;;24.00;;
21356;SDS011;10836;53.068;18.234;2023-04-24T04:33:26;42.25;;;25.83;;
21356;SDS011;10836;53.068;18.234;2023-04-24T04:35:53;42.72;;;25.42;;
21356;SDS011;10836;53.068;18.234;2023-04-24T04:38:25;39.22;;;24.60;;
21356;SDS011;10836;53.068;18.234;2023-04-24T04:41:04;43.72;;;25.55;;
21356;SDS011;10836;53.068;18.234;2023-04-24T04:43:32;42.45;;;24.63;;
21356;SDS011;10836;53.068;18.234;2023-04-24T04:46:00;35.83;;;23.58;;
21356;SDS011;10836;53.068;18.234;2023-04-24T04:48:38;35.35;;;21.98;;
21356;SDS011;10836;53.068;18.234;2023-04-24T04:51:06;40.22;;;22.65;;
21356;SDS011;10836;53.068;18.234;2023-04-24T04:53:33;31.55;;;19.73;;
21356;SDS011;10836;53.068;18.234;2023-04-24T04:56:01;32.10;;;20.52;;
21356;SDS011;10836;53.068;18.234;2023-04-24T04:58:40;31.27;;;19.80;;
21356;SDS011;10836;53.068;18.234;2023-04-24T05:01:11;31.80;;;19.85;;
21356;SDS011;10836;53.068;18.234;2023-04-24T05:03:41;28.98;;;19.55;;
21356;SDS011;10836;53.068;18.234;2023-04-24T05:06:12;31.45;;;19.95;;
21356;SDS011;10836;53.068;18.234;2023-04-24T05:08:39;32.88;;;19.13;;
21356;SDS011;10836;53.068;18.234;2023-04-24T05:11:16;28.92;;;18.48;;
21356;SDS011;10836;53.068;18.234;2023-04-24T05:13:43;27.25;;;18.02;;
21356;SDS011;10836;53.068;18.234;2023-04-24T05:16:18;27.48;;;17.40;;
21356;SDS011;10836;53.068;18.234;2023-04-24T05:18:46;27.83;;;16.38;;
21356;SDS011;10836;53.068;18.234;2023-04-24T05:21:17;28.85;;;16.60;;
21356;SDS011;10836;53.068;18.234;2023-04-24T05:23:48;26.95;;;16.70;;
21356;SDS011;10836;53.068;18.234;2023-04-24T05:26:22;29.70;;;17.08;;
21356;SDS011;10836;53.068;18.234;2023-04-24T05:28:50;33.42;;;20.42;;
21356;SDS011;10836;53.068;18.234;2023-04-24T05:31:17;32.33;;;20.40;;
21356;SDS011;10836;53.068;18.234;2023-04-24T05:33:45;28.40;;;18.60;;
21356;SDS011;10836;53.068;18.234;2023-04-24T05:36:12;27.42;;;19.00;;
21356;SDS011;10836;53.068;18.234;2023-04-24T05:38:40;26.83;;;17.00;;
21356;SDS011;10836;53.068;18.234;2023-04-24T05:41:07;23.95;;;16.17;;
21356;SDS011;10836;53.068;18.234;2023-04-24T05:43:35;26.02;;;15.77;;
21356;SDS011;10836;53.068;18.234;2023-04-24T05:46:02;24.65;;;15.68;;
21356;SDS011;10836;53.068;18.234;2023-04-24T05:48:29;22.80;;;15.18;;
21356;SDS011;10836;53.068;18.234;2023-04-24T05:50:56;26.55;;;16.25;;
21356;SDS011;10836;53.068;18.234;2023-04-24T05:53:23;21.05;;;15.13;;
21356;SDS011;10836;53.068;18.234;2023-04-24T05:55:50;20.40;;;14.50;;
21356;SDS011;10836;53.068;18.234;2023-04-24T05:58:18;24.23;;;14.52;;
21356;SDS011;10836;53.068;18.234;2023-04-24T06:00:46;21.15;;;14.38;;
21356;SDS011;10836;53.068;18.234;2023-04-24T06:03:14;19.08;;;11.98;;
21356;SDS011;10836;53.068;18.234;2023-04-24T06:05:41;22.42;;;12.70;;
21356;SDS011;10836;53.068;18.234;2023-04-24T06:08:09;20.45;;;11.82;;
21356;SDS011;10836;53.068;18.234;2023-04-24T06:10:38;20.85;;;12.02;;
21356;SDS011;10836;53.068;18.234;2023-04-24T06:13:07;20.27;;;11.63;;
21356;SDS011;10836;53.068;18.234;2023-04-24T06:15:37;17.48;;;11.70;;
21356;SDS011;10836;53.068;18.234;2023-04-24T06:18:07;18.20;;;11.52;;
21356;SDS011;10836;53.068;18.234;2023-04-24T06:20:38;21.05;;;11.38;;
21356;SDS011;10836;53.068;18.234;2023-04-24T06:23:08;22.85;;;12.50;;
21356;SDS011;10836;53.068;18.234;2023-04-24T06:25:35;20.83;;;11.27;;
21356;SDS011;10836;53.068;18.234;2023-04-24T06:28:02;18.48;;;11.95;;
21356;SDS011;10836;53.068;18.234;2023-04-24T06:30:30;20.45;;;12.98;;
21356;SDS011;10836;53.068;18.234;2023-04-24T06:32:57;20.45;;;13.43;;
21356;SDS011;10836;53.068;18.234;2023-04-24T06:35:38;29.60;;;17.08;;
21356;SDS011;10836;53.068;18.234;2023-04-24T06:38:05;22.67;;;14.63;;
21356;SDS011;10836;53.068;18.234;2023-04-24T06:40:33;21.88;;;14.00;;
21356;SDS011;10836;53.068;18.234;2023-04-24T06:43:00;26.08;;;14.57;;
21356;SDS011;10836;53.068;18.234;2023-04-24T06:45:29;23.98;;;13.57;;
21356;SDS011;10836;53.068;18.234;2023-04-24T06:47:56;20.42;;;13.25;;
21356;SDS011;10836;53.068;18.234;2023-04-24T06:50:24;23.08;;;13.98;;
21356;SDS011;10836;53.068;18.234;2023-04-24T06:52:51;26.05;;;13.68;;
21356;SDS011;10836;53.068;18.234;2023-04-24T06:55:18;22.38;;;14.40;;
21356;SDS011;10836;53.068;18.234;2023-04-24T06:57:45;26.73;;;15.73;;
21356;SDS011;10836;53.068;18.234;2023-04-24T07:00:12;24.33;;;15.20;;
21356;SDS011;10836;53.068;18.234;2023-04-24T07:02:40;26.38;;;16.50;;
21356;SDS011;10836;53.068;18.234;2023-04-24T07:05:07;28.70;;;16.38;;
21356;SDS011;10836;53.068;18.234;2023-04-24T07:07:35;33.92;;;18.65;;
21356;SDS011;10836;53.068;18.234;2023-04-24T07:10:04;28.77;;;15.93;;
21356;SDS011;10836;53.068;18.234;2023-04-24T07:12:32;24.05;;;14.65;;
21356;SDS011;10836;53.068;18.234;2023-04-24T07:15:00;23.38;;;13.45;;
21356;SDS011;10836;53.068;18.234;2023-04-24T07:17:27;22.00;;;12.75;;
21356;SDS011;10836;53.068;18.234;2023-04-24T07:19:54;22.35;;;11.88;;
21356;SDS011;10836;53.068;18.234;2023-04-24T07:22:21;25.55;;;12.48;;
21356;SDS011;10836;53.068;18.234;2023-04-24T07:24:48;20.98;;;12.38;;
21356;SDS011;10836;53.068;18.234;2023-04-24T07:27:15;24.77;;;11.63;;
21356;SDS011;10836;53.068;18.234;2023-04-24T07:29:42;20.88;;;12.27;;
21356;SDS011;10836;53.068;18.234;2023-04-24T07:32:10;18.38;;;11.60;;
21356;SDS011;10836;53.068;18.234;2023-04-24T07:34:37;18.30;;;11.73;;
21356;SDS011;10836;53.068;18.234;2023-04-24T07:37:04;21.52;;;11.18;;
21356;SDS011;10836;53.068;18.234;2023-04-24T07:39:31;27.30;;;18.15;;
21356;SDS011;10836;53.068;18.234;2023-04-24T07:41:58;19.42;;;11.07;;
21356;SDS011;10836;53.068;18.234;2023-04-24T07:44:25;20.60;;;11.93;;
21356;SDS011;10836;53.068;18.234;2023-04-24T07:46:53;20.65;;;12.65;;
21356;SDS011;10836;53.068;18.234;2023-04-24T07:49:20;17.92;;;10.75;;
21356;SDS011;10836;53.068;18.234;2023-04-24T07:51:47;16.55;;;11.35;;
21356;SDS011;10836;53.068;18.234;2023-04-24T07:54:16;17.63;;;10.93;;
21356;SDS011;10836;53.068;18.234;2023-04-24T07:56:43;15.18;;;10.48;;
21356;SDS011;10836;53.068;18.234;2023-04-24T07:59:10;15.68;;;10.10;;
21356;SDS011;10836;53.068;18.234;2023-04-24T08:01:37;17.23;;;10.35;;
21356;SDS011;10836;53.068;18.234;2023-04-24T08:04:05;16.05;;;9.98;;
21356;SDS011;10836;53.068;18.234;2023-04-24T08:06:32;17.80;;;9.35;;
21356;SDS011;10836;53.068;18.234;2023-04-24T08:08:59;13.93;;;9.25;;
21356;SDS011;10836;53.068;18.234;2023-04-24T08:11:27;15.98;;;9.55;;
21356;SDS011;10836;53.068;18.234;2023-04-24T08:13:54;16.35;;;9.10;;
21356;SDS011;10836;53.068;18.234;2023-04-24T08:16:22;15.88;;;8.18;;
21356;SDS011;10836;53.068;18.234;2023-04-24T08:18:50;11.40;;;7.78;;
21356;SDS011;10836;53.068;18.234;2023-04-24T08:21:18;13.10;;;8.25;;
21356;SDS011;10836;53.068;18.234;2023-04-24T08:23:46;10.68;;;7.68;;
21356;SDS011;10836;53.068;18.234;2023-04-24T08:26:13;12.07;;;8.00;;
21356;SDS011;10836;53.068;18.234;2023-04-24T08:28:40;13.10;;;7.97;;
21356;SDS011;10836;53.068;18.234;2023-04-24T08:31:07;13.18;;;7.97;;
21356;SDS011;10836;53.068;18.234;2023-04-24T08:33:34;14.43;;;9.35;;
21356;SDS011;10836;53.068;18.234;2023-04-24T08:36:02;12.85;;;7.82;;
21356;SDS011;10836;53.068;18.234;2023-04-24T08:38:29;11.55;;;8.52;;
21356;SDS011;10836;53.068;18.234;2023-04-24T08:40:58;12.90;;;7.88;;
21356;SDS011;10836;53.068;18.234;2023-04-24T08:43:26;12.95;;;6.95;;
21356;SDS011;10836;53.068;18.234;2023-04-24T08:45:55;12.73;;;7.28;;
21356;SDS011;10836;53.068;18.234;2023-04-24T08:48:23;11.80;;;6.97;;
21356;SDS011;10836;53.068;18.234;2023-04-24T08:50:58;11.98;;;7.20;;
21356;SDS011;10836;53.068;18.234;2023-04-24T08:53:26;13.98;;;6.93;;
21356;SDS011;10836;53.068;18.234;2023-04-24T08:55:54;13.48;;;7.40;;
21356;SDS011;10836;53.068;18.234;2023-04-24T08:58:22;10.30;;;7.07;;
21356;SDS011;10836;53.068;18.234;2023-04-24T09:00:56;11.35;;;6.22;;
21356;SDS011;10836;53.068;18.234;2023-04-24T09:03:24;14.55;;;7.10;;
21356;SDS011;10836;53.068;18.234;2023-04-24T09:05:54;16.13;;;7.85;;
21356;SDS011;10836;53.068;18.234;2023-04-24T09:08:22;12.90;;;7.05;;
21356;SDS011;10836;53.068;18.234;2023-04-24T09:10:51;13.43;;;8.07;;
21356;SDS011;10836;53.068;18.234;2023-04-24T09:13:18;11.90;;;6.95;;
21356;SDS011;10836;53.068;18.234;2023-04-24T09:15:46;14.68;;;9.15;;
21356;SDS011;10836;53.068;18.234;2023-04-24T09:18:13;15.98;;;8.27;;
21356;SDS011;10836;53.068;18.234;2023-04-24T09:20:56;16.38;;;8.02;;
21356;SDS011;10836;53.068;18.234;2023-04-24T09:23:31;12.82;;;8.70;;
21356;SDS011;10836;53.068;18.234;2023-04-24T09:25:59;16.75;;;9.10;;
21356;SDS011;10836;53.068;18.234;2023-04-24T09:28:31;16.50;;;9.70;;
21356;SDS011;10836;53.068;18.234;2023-04-24T09:31:05;18.08;;;11.15;;
21356;SDS011;10836;53.068;18.234;2023-04-24T09:33:36;16.45;;;8.38;;
21356;SDS011;10836;53.068;18.234;2023-04-24T09:36:04;13.35;;;6.45;;
21356;SDS011;10836;53.068;18.234;2023-04-24T09:38:33;11.60;;;6.68;;
21356;SDS011;10836;53.068;18.234;2023-04-24T09:41:02;9.93;;;6.10;;
21356;SDS011;10836;53.068;18.234;2023-04-24T09:43:31;11.73;;;6.35;;
21356;SDS011;10836;53.068;18.234;2023-04-24T09:46:04;9.35;;;5.72;;
21356;SDS011;10836;53.068;18.234;2023-04-24T09:48:33;11.05;;;6.38;;
21356;SDS011;10836;53.068;18.234;2023-04-24T09:51:02;11.02;;;6.50;;
21356;SDS011;10836;53.068;18.234;2023-04-24T09:53:30;9.60;;;5.72;;
21356;SDS011;10836;53.068;18.234;2023-04-24T09:56:06;13.23;;;5.38;;
21356;SDS011;10836;53.068;18.234;2023-04-24T09:58:35;11.20;;;5.40;;
21356;SDS011;10836;53.068;18.234;2023-04-24T10:01:02;11.25;;;5.45;;
21356;SDS011;10836;53.068;18.234;2023-04-24T10:03:30;9.40;;;5.15;;
21356;SDS011;10836;53.068;18.234;2023-04-24T10:06:02;14.50;;;7.15;;
21356;SDS011;10836;53.068;18.234;2023-04-24T10:08:35;16.13;;;9.73;;
21356;SDS011;10836;53.068;18.234;2023-04-24T10:11:04;9.90;;;5.97;;
21356;SDS011;10836;53.068;18.234;2023-04-24T10:13:31;10.82;;;5.97;;
21356;SDS011;10836;53.068;18.234;2023-04-24T10:15:59;13.18;;;6.15;;
21356;SDS011;10836;53.068;18.234;2023-04-24T10:18:27;10.18;;;6.07;;
21356;SDS011;10836;53.068;18.234;2023-04-24T10:20:55;11.43;;;6.70;;
21356;SDS011;10836;53.068;18.234;2023-04-24T10:23:23;10.45;;;5.90;;
21356;SDS011;10836;53.068;18.234;2023-04-24T10:25:52;10.30;;;5.90;;
21356;SDS011;10836;53.068;18.234;2023-04-24T10:28:19;11.30;;;6.20;;
21356;SDS011;10836;53.068;18.234;2023-04-24T10:30:47;11.40;;;6.60;;
21356;SDS011;10836;53.068;18.234;2023-04-24T10:33:14;13.13;;;6.82;;
21356;SDS011;10836;53.068;18.234;2023-04-24T10:35:44;14.00;;;8.02;;
21356;SDS011;10836;53.068;18.234;2023-04-24T10:38:21;12.38;;;8.23;;
21356;SDS011;10836;53.068;18.234;2023-04-24T10:40:51;13.98;;;8.63;;
21356;SDS011;10836;53.068;18.234;2023-04-24T10:43:24;12.98;;;8.13;;
21356;SDS011;10836;53.068;18.234;2023-04-24T10:46:01;15.60;;;8.00;;
21356;SDS011;10836;53.068;18.234;2023-04-24T10:48:29;13.75;;;8.68;;
21356;SDS011;10836;53.068;18.234;2023-04-24T10:50:57;13.85;;;8.43;;
21356;SDS011;10836;53.068;18.234;2023-04-24T10:53:27;12.93;;;6.93;;
21356;SDS011;10836;53.068;18.234;2023-04-24T10:58:36;13.18;;;7.15;;
21356;SDS011;10836;53.068;18.234;2023-04-24T11:01:07;14.68;;;7.70;;
21356;SDS011;10836;53.068;18.234;2023-04-24T11:03:34;14.40;;;9.15;;
21356;SDS011;10836;53.068;18.234;2023-04-24T11:06:06;13.15;;;7.85;;
21356;SDS011;10836;53.068;18.234;2023-04-24T11:11:08;15.18;;;8.07;;
21356;SDS011;10836;53.068;18.234;2023-04-24T11:14:13;14.43;;;7.70;;
21356;SDS011;10836;53.068;18.234;2023-04-24T11:16:36;11.93;;;6.90;;
21356;SDS011;10836;53.068;18.234;2023-04-24T11:21:57;15.73;;;7.00;;
21356;SDS011;10836;53.068;18.234;2023-04-24T11:26:55;13.18;;;6.20;;
21356;SDS011;10836;53.068;18.234;2023-04-24T11:34:56;12.10;;;7.55;;
21356;SDS011;10836;53.068;18.234;2023-04-24T11:37:25;13.52;;;8.05;;
21356;SDS011;10836;53.068;18.234;2023-04-24T11:39:54;14.48;;;7.85;;
21356;SDS011;10836;53.068;18.234;2023-04-24T11:42:23;13.85;;;7.70;;
21356;SDS011;10836;53.068;18.234;2023-04-24T11:44:52;13.18;;;7.63;;
21356;SDS011;10836;53.068;18.234;2023-04-24T11:47:20;16.40;;;8.45;;
21356;SDS011;10836;53.068;18.234;2023-04-24T11:49:49;16.33;;;8.00;;
21356;SDS011;10836;53.068;18.234;2023-04-24T11:52:17;16.55;;;9.50;;
21356;SDS011;10836;53.068;18.234;2023-04-24T11:54:47;17.60;;;10.32;;
21356;SDS011;10836;53.068;18.234;2023-04-24T11:57:21;18.15;;;9.13;;
21356;SDS011;10836;53.068;18.234;2023-04-24T11:59:53;14.57;;;8.90;;
21356;SDS011;10836;53.068;18.234;2023-04-24T12:02:21;17.73;;;10.48;;
21356;SDS011;10836;53.068;18.234;2023-04-24T12:04:49;22.33;;;12.82;;
21356;SDS011;10836;53.068;18.234;2023-04-24T12:07:18;15.82;;;10.40;;
21356;SDS011;10836;53.068;18.234;2023-04-24T12:09:49;13.15;;;8.70;;
21356;SDS011;10836;53.068;18.234;2023-04-24T12:12:25;15.13;;;9.88;;
21356;SDS011;10836;53.068;18.234;2023-04-24T12:14:57;17.23;;;9.63;;
21356;SDS011;10836;53.068;18.234;2023-04-24T12:17:26;20.00;;;10.40;;
21356;SDS011;10836;53.068;18.234;2023-04-24T12:19:59;16.75;;;9.90;;
21356;SDS011;10836;53.068;18.234;2023-04-24T12:22:45;29.30;;;10.48;;
21356;SDS011;10836;53.068;18.234;2023-04-24T12:25:13;13.65;;;8.77;;
21356;SDS011;10836;53.068;18.234;2023-04-24T12:27:43;49.33;;;20.77;;
21356;SDS011;10836;53.068;18.234;2023-04-24T12:30:16;18.60;;;9.85;;
21356;SDS011;10836;53.068;18.234;2023-04-24T12:32:47;26.67;;;12.82;;
21356;SDS011;10836;53.068;18.234;2023-04-24T12:35:22;12.45;;;6.22;;
21356;SDS011;10836;53.068;18.234;2023-04-24T12:37:50;35.47;;;13.13;;
21356;SDS011;10836;53.068;18.234;2023-04-24T12:40:18;14.27;;;7.20;;
21356;SDS011;10836;53.068;18.234;2023-04-24T12:42:47;72.25;;;28.30;;
21356;SDS011;10836;53.068;18.234;2023-04-24T12:45:16;10.02;;;5.47;;
21356;SDS011;10836;53.068;18.234;2023-04-24T12:47:45;33.10;;;7.68;;
21356;SDS011;10836;53.068;18.234;2023-04-24T12:50:13;29.48;;;12.73;;
21356;SDS011;10836;53.068;18.234;2023-04-24T12:52:42;18.08;;;8.25;;
21356;SDS011;10836;53.068;18.234;2023-04-24T12:55:09;55.50;;;22.08;;
21356;SDS011;10836;53.068;18.234;2023-04-24T12:57:37;79.03;;;30.33;;
21356;SDS011;10836;53.068;18.234;2023-04-24T13:00:06;9.93;;;5.28;;
21356;SDS011;10836;53.068;18.234;2023-04-24T13:02:34;21.15;;;9.90;;
21356;SDS011;10836;53.068;18.234;2023-04-24T13:05:01;18.52;;;7.88;;
21356;SDS011;10836;53.068;18.234;2023-04-24T13:07:29;33.00;;;14.23;;
21356;SDS011;10836;53.068;18.234;2023-04-24T13:09:56;34.72;;;15.80;;
21356;SDS011;10836;53.068;18.234;2023-04-24T13:12:24;10.38;;;5.10;;
21356;SDS011;10836;53.068;18.234;2023-04-24T13:14:52;10.57;;;4.65;;
21356;SDS011;10836;53.068;18.234;2023-04-24T13:17:19;8.20;;;4.43;;
21356;SDS011;10836;53.068;18.234;2023-04-24T13:19:49;24.63;;;9.38;;
21356;SDS011;10836;53.068;18.234;2023-04-24T13:22:17;19.95;;;9.80;;
21356;SDS011;10836;53.068;18.234;2023-04-24T13:24:47;21.17;;;9.18;;
21356;SDS011;10836;53.068;18.234;2023-04-24T13:27:17;7.85;;;5.00;;
21356;SDS011;10836;53.068;18.234;2023-04-24T13:29:44;11.25;;;6.45;;
21356;SDS011;10836;53.068;18.234;2023-04-24T13:32:11;10.05;;;5.32;;
21356;SDS011;10836;53.068;18.234;2023-04-24T13:34:38;12.98;;;6.07;;
21356;SDS011;10836;53.068;18.234;2023-04-24T13:37:05;10.20;;;6.00;;
21356;SDS011;10836;53.068;18.234;2023-04-24T13:39:34;11.88;;;5.45;;
21356;SDS011;10836;53.068;18.234;2023-04-24T13:42:02;13.82;;;7.43;;
21356;SDS011;10836;53.068;18.234;2023-04-24T13:44:30;8.32;;;5.28;;
21356;SDS011;10836;53.068;18.234;2023-04-24T13:46:58;13.18;;;6.15;;
21356;SDS011;10836;53.068;18.234;2023-04-24T13:49:26;13.20;;;6.32;;
21356;SDS011;10836;53.068;18.234;2023-04-24T13:51:54;9.15;;;5.97;;
21356;SDS011;10836;53.068;18.234;2023-04-24T13:54:22;11.65;;;6.72;;
21356;SDS011;10836;53.068;18.234;2023-04-24T13:56:52;16.50;;;7.88;;
21356;SDS011;10836;53.068;18.234;2023-04-24T13:59:19;13.48;;;6.88;;
21356;SDS011;10836;53.068;18.234;2023-04-24T14:01:48;13.23;;;8.05;;
21356;SDS011;10836;53.068;18.234;2023-04-24T14:04:15;10.77;;;7.65;;
21356;SDS011;10836;53.068;18.234;2023-04-24T14:06:43;15.93;;;8.25;;
21356;SDS011;10836;53.068;18.234;2023-04-24T14:09:10;15.18;;;8.43;;
21356;SDS011;10836;53.068;18.234;2023-04-24T14:11:38;13.00;;;7.95;;
21356;SDS011;10836;53.068;18.234;2023-04-24T14:14:04;17.48;;;8.32;;
21356;SDS011;10836;53.068;18.234;2023-04-24T14:16:32;15.45;;;7.20;;
21356;SDS011;10836;53.068;18.234;2023-04-24T14:18:59;9.18;;;5.45;;
21356;SDS011;10836;53.068;18.234;2023-04-24T14:21:26;7.63;;;4.68;;
21356;SDS011;10836;53.068;18.234;2023-04-24T14:23:53;34.10;;;5.65;;
21356;SDS011;10836;53.068;18.234;2023-04-24T14:26:20;8.00;;;3.88;;
21356;SDS011;10836;53.068;18.234;2023-04-24T14:28:47;6.78;;;3.80;;
21356;SDS011;10836;53.068;18.234;2023-04-24T14:31:14;38.00;;;6.20;;
21356;SDS011;10836;53.068;18.234;2023-04-24T14:33:40;7.80;;;3.45;;
21356;SDS011;10836;53.068;18.234;2023-04-24T14:36:08;9.70;;;4.15;;
21356;SDS011;10836;53.068;18.234;2023-04-24T14:38:35;9.20;;;4.03;;